sensor_id;sensor_type;location;lat;lon;timestamp;P1;durP1;ratioP1;P2;durP2;ratioP2
35324;SDS011;35135;47.510;19.036;2023-06-22T00:00:59;8.00;;;4.97;;
35324;SDS011;35135;47.510;19.036;2023-06-22T00:03:25;7.60;;;4.90;;
35324;SDS011;35135;47.510;19.036;2023-06-22T00:05:51;8.20;;;4.70;;
35324;SDS011;35135;47.510;19.036;2023-06-22T00:08:18;9.85;;;5.03;;
35324;SDS011;35135;47.510;19.036;2023-06-22T00:10:44;8.10;;;4.55;;
35324;SDS011;35135;47.510;19.036;2023-06-22T00:13:11;10.02;;;5.68;;
35324;SDS011;35135;47.510;19.036;2023-06-22T00:15:38;7.78;;;4.82;;
35324;SDS011;35135;47.510;19.036;2023-06-22T00:18:06;7.65;;;4.68;;
35324;SDS011;35135;47.510;19.036;2023-06-22T00:20:32;9.80;;;5.18;;
35324;SDS011;35135;47.510;19.036;2023-06-22T00:23:01;7.88;;;4.75;;
35324;SDS011;35135;47.510;19.036;2023-06-22T00:25:33;8.43;;;4.70;;
35324;SDS011;35135;47.510;19.036;2023-06-22T00:28:02;12.02;;;4.75;;
35324;SDS011;35135;47.510;19.036;2023-06-22T00:30:29;6.68;;;4.63;;
35324;SDS011;35135;47.510;19.036;2023-06-22T00:32:56;9.88;;;4.65;;
35324;SDS011;35135;47.510;19.036;2023-06-22T00:35:22;6.82;;;4.70;;
35324;SDS011;35135;47.510;19.036;2023-06-22T00:37:47;7.95;;;4.55;;
35324;SDS011;35135;47.510;19.036;2023-06-22T00:40:13;8.20;;;4.82;;
35324;SDS011;35135;47.510;19.036;2023-06-22T00:42:39;8.48;;;4.82;;
35324;SDS011;35135;47.510;19.036;2023-06-22T00:45:06;11.50;;;5.40;;
35324;SDS011;35135;47.510;19.036;2023-06-22T00:47:33;6.93;;;4.28;;
35324;SDS011;35135;47.510;19.036;2023-06-22T00:49:59;8.57;;;5.13;;
35324;SDS011;35135;47.510;19.036;2023-06-22T00:52:25;9.32;;;5.57;;
35324;SDS011;35135;47.510;19.036;2023-06-22T00:54:54;8.45;;;5.18;;
35324;SDS011;35135;47.510;19.036;2023-06-22T00:57:21;8.93;;;5.35;;
35324;SDS011;35135;47.510;19.036;2023-06-22T00:59:50;8.77;;;4.13;;
35324;SDS011;35135;47.510;19.036;2023-06-22T01:02:16;11.15;;;5.00;;
35324;SDS011;35135;47.510;19.036;2023-06-22T01:04:42;9.48;;;5.18;;
35324;SDS011;35135;47.510;19.036;2023-06-22T01:07:20;6.65;;;4.50;;
35324;SDS011;35135;47.510;19.036;2023-06-22T01:10:05;8.48;;;4.70;;
35324;SDS011;35135;47.510;19.036;2023-06-22T01:12:40;7.35;;;4.35;;
35324;SDS011;35135;47.510;19.036;2023-06-22T01:15:11;8.82;;;5.20;;
35324;SDS011;35135;47.510;19.036;2023-06-22T01:17:53;8.40;;;5.38;;
35324;SDS011;35135;47.510;19.036;2023-06-22T01:20:21;7.65;;;4.72;;
35324;SDS011;35135;47.510;19.036;2023-06-22T01:23:33;8.20;;;5.18;;
35324;SDS011;35135;47.510;19.036;2023-06-22T01:28:36;8.57;;;4.95;;
35324;SDS011;35135;47.510;19.036;2023-06-22T01:31:08;9.38;;;5.32;;
35324;SDS011;35135;47.510;19.036;2023-06-22T01:33:37;7.70;;;4.53;;
35324;SDS011;35135;47.510;19.036;2023-06-22T01:36:05;9.70;;;5.20;;
35324;SDS011;35135;47.510;19.036;2023-06-22T01:38:32;9.65;;;4.68;;
35324;SDS011;35135;47.510;19.036;2023-06-22T01:40:58;11.57;;;4.53;;
35324;SDS011;35135;47.510;19.036;2023-06-22T01:43:26;8.02;;;4.70;;
35324;SDS011;35135;47.510;19.036;2023-06-22T01:45:53;8.02;;;4.80;;
35324;SDS011;35135;47.510;19.036;2023-06-22T01:48:23;6.55;;;4.75;;
35324;SDS011;35135;47.510;19.036;2023-06-22T01:50:51;6.65;;;4.82;;
35324;SDS011;35135;47.510;19.036;2023-06-22T01:53:18;7.80;;;4.65;;
35324;SDS011;35135;47.510;19.036;2023-06-22T01:55:45;8.18;;;4.60;;
35324;SDS011;35135;47.510;19.036;2023-06-22T01:58:10;6.95;;;4.53;;
35324;SDS011;35135;47.510;19.036;2023-06-22T02:00:37;7.68;;;4.43;;
35324;SDS011;35135;47.510;19.036;2023-06-22T02:03:08;6.22;;;4.32;;
35324;SDS011;35135;47.510;19.036;2023-06-22T02:05:41;5.93;;;3.95;;
35324;SDS011;35135;47.510;19.036;2023-06-22T02:08:18;7.93;;;4.45;;
35324;SDS011;35135;47.510;19.036;2023-06-22T02:10:46;7.80;;;4.38;;
35324;SDS011;35135;47.510;19.036;2023-06-22T02:13:13;6.85;;;4.10;;
35324;SDS011;35135;47.510;19.036;2023-06-22T02:15:40;6.15;;;5.00;;
35324;SDS011;35135;47.510;19.036;2023-06-22T02:18:07;7.45;;;4.70;;
35324;SDS011;35135;47.510;19.036;2023-06-22T02:20:32;6.38;;;4.45;;
35324;SDS011;35135;47.510;19.036;2023-06-22T02:23:01;7.97;;;4.88;;
35324;SDS011;35135;47.510;19.036;2023-06-22T02:25:26;7.38;;;4.47;;
35324;SDS011;35135;47.510;19.036;2023-06-22T02:27:52;8.18;;;4.63;;
35324;SDS011;35135;47.510;19.036;2023-06-22T02:30:18;5.85;;;4.10;;
35324;SDS011;35135;47.510;19.036;2023-06-22T02:32:43;6.63;;;4.75;;
35324;SDS011;35135;47.510;19.036;2023-06-22T02:35:09;6.10;;;3.95;;
35324;SDS011;35135;47.510;19.036;2023-06-22T02:37:36;7.60;;;4.50;;
35324;SDS011;35135;47.510;19.036;2023-06-22T02:40:07;9.48;;;4.50;;
35324;SDS011;35135;47.510;19.036;2023-06-22T02:42:37;8.38;;;4.18;;
35324;SDS011;35135;47.510;19.036;2023-06-22T02:45:04;8.02;;;4.72;;
35324;SDS011;35135;47.510;19.036;2023-06-22T02:47:31;8.30;;;4.57;;
35324;SDS011;35135;47.510;19.036;2023-06-22T02:49:56;9.30;;;4.57;;
35324;SDS011;35135;47.510;19.036;2023-06-22T02:52:22;7.10;;;4.10;;
35324;SDS011;35135;47.510;19.036;2023-06-22T02:54:48;7.28;;;4.65;;
35324;SDS011;35135;47.510;19.036;2023-06-22T02:57:13;6.63;;;4.70;;
35324;SDS011;35135;47.510;19.036;2023-06-22T02:59:42;11.00;;;4.57;;
35324;SDS011;35135;47.510;19.036;2023-06-22T03:02:08;8.45;;;4.55;;
35324;SDS011;35135;47.510;19.036;2023-06-22T03:04:34;6.78;;;4.47;;
35324;SDS011;35135;47.510;19.036;2023-06-22T03:07:01;8.63;;;4.65;;
35324;SDS011;35135;47.510;19.036;2023-06-22T03:09:30;8.35;;;4.50;;
35324;SDS011;35135;47.510;19.036;2023-06-22T03:11:55;8.07;;;4.47;;
35324;SDS011;35135;47.510;19.036;2023-06-22T03:14:21;6.00;;;4.20;;
35324;SDS011;35135;47.510;19.036;2023-06-22T03:16:47;6.55;;;3.90;;
35324;SDS011;35135;47.510;19.036;2023-06-22T03:19:13;8.55;;;4.20;;
35324;SDS011;35135;47.510;19.036;2023-06-22T03:21:39;10.38;;;5.30;;
35324;SDS011;35135;47.510;19.036;2023-06-22T03:24:05;10.43;;;4.60;;
35324;SDS011;35135;47.510;19.036;2023-06-22T03:26:31;8.25;;;4.63;;
35324;SDS011;35135;47.510;19.036;2023-06-22T03:28:57;6.68;;;3.95;;
35324;SDS011;35135;47.510;19.036;2023-06-22T03:31:22;10.40;;;4.75;;
35324;SDS011;35135;47.510;19.036;2023-06-22T03:33:49;7.47;;;4.28;;
35324;SDS011;35135;47.510;19.036;2023-06-22T03:36:16;6.28;;;4.03;;
35324;SDS011;35135;47.510;19.036;2023-06-22T03:38:45;6.07;;;4.15;;
35324;SDS011;35135;47.510;19.036;2023-06-22T03:41:14;8.90;;;4.13;;
35324;SDS011;35135;47.510;19.036;2023-06-22T03:43:40;5.88;;;3.75;;
35324;SDS011;35135;47.510;19.036;2023-06-22T03:46:06;7.38;;;3.58;;
35324;SDS011;35135;47.510;19.036;2023-06-22T03:48:32;6.88;;;3.65;;
35324;SDS011;35135;47.510;19.036;2023-06-22T03:50:59;9.85;;;4.82;;
35324;SDS011;35135;47.510;19.036;2023-06-22T03:53:25;8.25;;;4.78;;
35324;SDS011;35135;47.510;19.036;2023-06-22T03:55:51;5.88;;;3.65;;
35324;SDS011;35135;47.510;19.036;2023-06-22T03:58:17;7.78;;;4.55;;
35324;SDS011;35135;47.510;19.036;2023-06-22T04:00:47;7.90;;;4.53;;
35324;SDS011;35135;47.510;19.036;2023-06-22T04:03:14;7.88;;;4.40;;
35324;SDS011;35135;47.510;19.036;2023-06-22T04:05:40;7.40;;;4.70;;
35324;SDS011;35135;47.510;19.036;2023-06-22T04:08:06;8.27;;;5.03;;
35324;SDS011;35135;47.510;19.036;2023-06-22T04:10:32;7.50;;;4.10;;
35324;SDS011;35135;47.510;19.036;2023-06-22T04:12:58;9.27;;;4.57;;
35324;SDS011;35135;47.510;19.036;2023-06-22T04:15:24;8.20;;;4.53;;
35324;SDS011;35135;47.510;19.036;2023-06-22T04:17:49;7.50;;;4.40;;
35324;SDS011;35135;47.510;19.036;2023-06-22T04:20:15;7.82;;;4.28;;
35324;SDS011;35135;47.510;19.036;2023-06-22T04:22:41;9.30;;;4.35;;
35324;SDS011;35135;47.510;19.036;2023-06-22T04:25:06;6.28;;;4.43;;
35324;SDS011;35135;47.510;19.036;2023-06-22T04:27:32;9.45;;;4.28;;
35324;SDS011;35135;47.510;19.036;2023-06-22T04:30:05;8.23;;;4.43;;
35324;SDS011;35135;47.510;19.036;2023-06-22T04:32:32;11.98;;;4.63;;
35324;SDS011;35135;47.510;19.036;2023-06-22T04:35:04;6.40;;;4.28;;
35324;SDS011;35135;47.510;19.036;2023-06-22T04:37:31;9.38;;;4.35;;
35324;SDS011;35135;47.510;19.036;2023-06-22T04:39:57;8.25;;;5.00;;
35324;SDS011;35135;47.510;19.036;2023-06-22T04:42:25;7.45;;;4.18;;
35324;SDS011;35135;47.510;19.036;2023-06-22T04:44:51;7.20;;;4.53;;
35324;SDS011;35135;47.510;19.036;2023-06-22T04:47:17;9.98;;;5.00;;
35324;SDS011;35135;47.510;19.036;2023-06-22T04:49:43;8.50;;;4.43;;
35324;SDS011;35135;47.510;19.036;2023-06-22T04:52:09;8.52;;;5.70;;
35324;SDS011;35135;47.510;19.036;2023-06-22T04:54:37;10.30;;;4.30;;
35324;SDS011;35135;47.510;19.036;2023-06-22T04:57:04;8.57;;;4.57;;
35324;SDS011;35135;47.510;19.036;2023-06-22T04:59:35;10.15;;;5.07;;
35324;SDS011;35135;47.510;19.036;2023-06-22T05:02:04;7.35;;;4.47;;
35324;SDS011;35135;47.510;19.036;2023-06-22T05:04:33;10.00;;;5.10;;
35324;SDS011;35135;47.510;19.036;2023-06-22T05:07:03;9.20;;;5.22;;
35324;SDS011;35135;47.510;19.036;2023-06-22T05:09:29;11.10;;;5.43;;
35324;SDS011;35135;47.510;19.036;2023-06-22T05:11:55;10.98;;;4.75;;
35324;SDS011;35135;47.510;19.036;2023-06-22T05:14:27;8.23;;;4.63;;
35324;SDS011;35135;47.510;19.036;2023-06-22T05:16:52;7.38;;;5.35;;
35324;SDS011;35135;47.510;19.036;2023-06-22T05:19:18;5.85;;;4.25;;
35324;SDS011;35135;47.510;19.036;2023-06-22T05:21:44;7.93;;;5.03;;
35324;SDS011;35135;47.510;19.036;2023-06-22T05:24:10;9.20;;;5.07;;
35324;SDS011;35135;47.510;19.036;2023-06-22T05:26:36;7.63;;;4.50;;
35324;SDS011;35135;47.510;19.036;2023-06-22T05:29:02;7.28;;;4.47;;
35324;SDS011;35135;47.510;19.036;2023-06-22T05:31:28;7.97;;;4.70;;
35324;SDS011;35135;47.510;19.036;2023-06-22T05:33:54;10.00;;;5.30;;
35324;SDS011;35135;47.510;19.036;2023-06-22T05:36:21;6.60;;;4.28;;
35324;SDS011;35135;47.510;19.036;2023-06-22T05:38:51;10.52;;;4.78;;
35324;SDS011;35135;47.510;19.036;2023-06-22T05:41:18;9.70;;;4.75;;
35324;SDS011;35135;47.510;19.036;2023-06-22T05:43:44;9.27;;;4.70;;
35324;SDS011;35135;47.510;19.036;2023-06-22T05:46:10;7.38;;;3.92;;
35324;SDS011;35135;47.510;19.036;2023-06-22T05:48:35;5.57;;;4.00;;
35324;SDS011;35135;47.510;19.036;2023-06-22T05:51:01;5.90;;;4.43;;
35324;SDS011;35135;47.510;19.036;2023-06-22T05:53:27;6.57;;;4.22;;
35324;SDS011;35135;47.510;19.036;2023-06-22T05:55:52;11.70;;;4.88;;
35324;SDS011;35135;47.510;19.036;2023-06-22T05:58:18;7.47;;;4.20;;
35324;SDS011;35135;47.510;19.036;2023-06-22T06:00:44;8.30;;;4.28;;
35324;SDS011;35135;47.510;19.036;2023-06-22T06:03:10;8.32;;;4.45;;
35324;SDS011;35135;47.510;19.036;2023-06-22T06:05:36;7.78;;;4.20;;
35324;SDS011;35135;47.510;19.036;2023-06-22T06:08:05;9.48;;;4.88;;
35324;SDS011;35135;47.510;19.036;2023-06-22T06:10:32;7.93;;;4.60;;
35324;SDS011;35135;47.510;19.036;2023-06-22T06:12:58;8.32;;;5.07;;
35324;SDS011;35135;47.510;19.036;2023-06-22T06:15:27;8.45;;;4.65;;
35324;SDS011;35135;47.510;19.036;2023-06-22T06:17:52;9.88;;;5.68;;
35324;SDS011;35135;47.510;19.036;2023-06-22T06:20:19;9.95;;;5.55;;
35324;SDS011;35135;47.510;19.036;2023-06-22T06:22:46;14.10;;;5.75;;
35324;SDS011;35135;47.510;19.036;2023-06-22T06:25:12;9.75;;;5.28;;
35324;SDS011;35135;47.510;19.036;2023-06-22T06:27:44;10.20;;;6.00;;
35324;SDS011;35135;47.510;19.036;2023-06-22T06:30:12;10.85;;;5.60;;
35324;SDS011;35135;47.510;19.036;2023-06-22T06:32:39;10.10;;;5.55;;
35324;SDS011;35135;47.510;19.036;2023-06-22T06:35:05;10.43;;;5.30;;
35324;SDS011;35135;47.510;19.036;2023-06-22T06:37:35;10.82;;;5.72;;
35324;SDS011;35135;47.510;19.036;2023-06-22T06:40:02;13.02;;;5.45;;
35324;SDS011;35135;47.510;19.036;2023-06-22T06:42:30;14.85;;;4.93;;
35324;SDS011;35135;47.510;19.036;2023-06-22T06:44:56;10.60;;;4.90;;
35324;SDS011;35135;47.510;19.036;2023-06-22T06:47:22;10.35;;;4.70;;
35324;SDS011;35135;47.510;19.036;2023-06-22T06:49:48;11.60;;;4.95;;
35324;SDS011;35135;47.510;19.036;2023-06-22T06:52:13;12.60;;;5.07;;
35324;SDS011;35135;47.510;19.036;2023-06-22T06:54:39;10.82;;;4.55;;
35324;SDS011;35135;47.510;19.036;2023-06-22T06:57:07;14.50;;;5.15;;
35324;SDS011;35135;47.510;19.036;2023-06-22T06:59:35;11.73;;;4.75;;
35324;SDS011;35135;47.510;19.036;2023-06-22T07:02:01;16.25;;;5.10;;
35324;SDS011;35135;47.510;19.036;2023-06-22T07:04:27;12.77;;;4.45;;
35324;SDS011;35135;47.510;19.036;2023-06-22T07:06:52;29.40;;;5.35;;
35324;SDS011;35135;47.510;19.036;2023-06-22T07:09:18;8.77;;;4.30;;
35324;SDS011;35135;47.510;19.036;2023-06-22T07:11:43;8.88;;;4.00;;
35324;SDS011;35135;47.510;19.036;2023-06-22T07:14:09;8.40;;;4.70;;
35324;SDS011;35135;47.510;19.036;2023-06-22T07:16:35;9.48;;;4.35;;
35324;SDS011;35135;47.510;19.036;2023-06-22T07:19:00;7.80;;;4.13;;
35324;SDS011;35135;47.510;19.036;2023-06-22T07:21:26;11.27;;;4.30;;
35324;SDS011;35135;47.510;19.036;2023-06-22T07:23:52;12.60;;;3.78;;
35324;SDS011;35135;47.510;19.036;2023-06-22T07:26:17;7.63;;;3.97;;
35324;SDS011;35135;47.510;19.036;2023-06-22T07:28:43;9.23;;;3.95;;
35324;SDS011;35135;47.510;19.036;2023-06-22T07:31:09;10.07;;;3.97;;
35324;SDS011;35135;47.510;19.036;2023-06-22T07:33:34;8.48;;;4.05;;
35324;SDS011;35135;47.510;19.036;2023-06-22T07:36:00;17.83;;;4.57;;
35324;SDS011;35135;47.510;19.036;2023-06-22T07:38:27;6.22;;;3.72;;
35324;SDS011;35135;47.510;19.036;2023-06-22T07:40:53;9.07;;;3.65;;
35324;SDS011;35135;47.510;19.036;2023-06-22T07:43:19;9.40;;;4.25;;
35324;SDS011;35135;47.510;19.036;2023-06-22T07:45:48;10.05;;;3.83;;
35324;SDS011;35135;47.510;19.036;2023-06-22T07:48:19;9.93;;;4.18;;
35324;SDS011;35135;47.510;19.036;2023-06-22T07:50:46;8.77;;;4.00;;
35324;SDS011;35135;47.510;19.036;2023-06-22T07:53:12;9.70;;;3.92;;
35324;SDS011;35135;47.510;19.036;2023-06-22T07:55:37;10.63;;;4.78;;
35324;SDS011;35135;47.510;19.036;2023-06-22T07:58:03;9.52;;;4.57;;
35324;SDS011;35135;47.510;19.036;2023-06-22T08:00:29;7.60;;;4.00;;
35324;SDS011;35135;47.510;19.036;2023-06-22T08:02:54;10.73;;;4.32;;
35324;SDS011;35135;47.510;19.036;2023-06-22T08:05:20;8.30;;;3.85;;
35324;SDS011;35135;47.510;19.036;2023-06-22T08:07:46;7.70;;;3.80;;
35324;SDS011;35135;47.510;19.036;2023-06-22T08:10:11;10.63;;;4.30;;
35324;SDS011;35135;47.510;19.036;2023-06-22T08:12:38;11.88;;;4.10;;
35324;SDS011;35135;47.510;19.036;2023-06-22T08:15:05;8.82;;;3.88;;
35324;SDS011;35135;47.510;19.036;2023-06-22T08:17:32;6.53;;;3.70;;
35324;SDS011;35135;47.510;19.036;2023-06-22T08:19:58;9.15;;;4.60;;
35324;SDS011;35135;47.510;19.036;2023-06-22T08:22:24;6.65;;;4.18;;
35324;SDS011;35135;47.510;19.036;2023-06-22T08:24:50;7.57;;;4.85;;
35324;SDS011;35135;47.510;19.036;2023-06-22T08:27:15;9.38;;;4.20;;
35324;SDS011;35135;47.510;19.036;2023-06-22T08:29:43;7.38;;;3.95;;
35324;SDS011;35135;47.510;19.036;2023-06-22T08:32:10;7.95;;;4.32;;
35324;SDS011;35135;47.510;19.036;2023-06-22T08:34:37;6.55;;;3.90;;
35324;SDS011;35135;47.510;19.036;2023-06-22T08:37:07;8.75;;;4.03;;
35324;SDS011;35135;47.510;19.036;2023-06-22T08:39:34;8.18;;;5.00;;
35324;SDS011;35135;47.510;19.036;2023-06-22T08:42:00;7.35;;;4.28;;
35324;SDS011;35135;47.510;19.036;2023-06-22T08:44:25;7.45;;;4.75;;
35324;SDS011;35135;47.510;19.036;2023-06-22T08:46:51;10.05;;;5.32;;
35324;SDS011;35135;47.510;19.036;2023-06-22T08:49:17;6.82;;;4.60;;
35324;SDS011;35135;47.510;19.036;2023-06-22T08:51:42;9.75;;;4.25;;
35324;SDS011;35135;47.510;19.036;2023-06-22T08:54:10;8.73;;;5.18;;
35324;SDS011;35135;47.510;19.036;2023-06-22T08:56:36;7.20;;;4.93;;
35324;SDS011;35135;47.510;19.036;2023-06-22T08:59:02;6.63;;;5.07;;
35324;SDS011;35135;47.510;19.036;2023-06-22T09:01:27;8.75;;;5.07;;
35324;SDS011;35135;47.510;19.036;2023-06-22T09:03:53;8.48;;;5.13;;
35324;SDS011;35135;47.510;19.036;2023-06-22T09:06:23;7.68;;;5.60;;
35324;SDS011;35135;47.510;19.036;2023-06-22T09:08:49;6.35;;;5.53;;
35324;SDS011;35135;47.510;19.036;2023-06-22T09:11:15;8.38;;;5.90;;
35324;SDS011;35135;47.510;19.036;2023-06-22T09:13:41;8.30;;;5.65;;
35324;SDS011;35135;47.510;19.036;2023-06-22T09:16:07;7.30;;;5.95;;
35324;SDS011;35135;47.510;19.036;2023-06-22T09:18:36;6.95;;;5.78;;
35324;SDS011;35135;47.510;19.036;2023-06-22T09:21:02;8.30;;;5.72;;
35324;SDS011;35135;47.510;19.036;2023-06-22T09:23:27;9.10;;;6.60;;
35324;SDS011;35135;47.510;19.036;2023-06-22T09:25:53;8.48;;;6.38;;
35324;SDS011;35135;47.510;19.036;2023-06-22T09:28:19;7.30;;;6.60;;
35324;SDS011;35135;47.510;19.036;2023-06-22T09:30:45;6.97;;;6.35;;
35324;SDS011;35135;47.510;19.036;2023-06-22T09:33:10;7.85;;;7.00;;
35324;SDS011;35135;47.510;19.036;2023-06-22T09:35:36;7.70;;;6.57;;
35324;SDS011;35135;47.510;19.036;2023-06-22T09:38:02;9.38;;;7.32;;
35324;SDS011;35135;47.510;19.036;2023-06-22T09:40:27;8.32;;;7.53;;
35324;SDS011;35135;47.510;19.036;2023-06-22T09:42:53;9.32;;;6.78;;
35324;SDS011;35135;47.510;19.036;2023-06-22T09:45:19;8.15;;;7.35;;
35324;SDS011;35135;47.510;19.036;2023-06-22T09:47:44;10.10;;;7.93;;
35324;SDS011;35135;47.510;19.036;2023-06-22T09:50:10;9.65;;;7.25;;
35324;SDS011;35135;47.510;19.036;2023-06-22T09:52:37;8.52;;;7.72;;
35324;SDS011;35135;47.510;19.036;2023-06-22T09:55:02;8.70;;;7.80;;
35324;SDS011;35135;47.510;19.036;2023-06-22T09:57:29;9.57;;;8.35;;
35324;SDS011;35135;47.510;19.036;2023-06-22T09:59:55;8.63;;;7.65;;
35324;SDS011;35135;47.510;19.036;2023-06-22T10:02:21;8.77;;;7.00;;
35324;SDS011;35135;47.510;19.036;2023-06-22T10:04:47;10.93;;;8.50;;
35324;SDS011;35135;47.510;19.036;2023-06-22T10:07:13;8.85;;;8.00;;
35324;SDS011;35135;47.510;19.036;2023-06-22T10:09:39;9.07;;;7.80;;
35324;SDS011;35135;47.510;19.036;2023-06-22T10:12:05;11.50;;;8.57;;
35324;SDS011;35135;47.510;19.036;2023-06-22T10:14:31;10.07;;;9.02;;
35324;SDS011;35135;47.510;19.036;2023-06-22T10:16:57;9.43;;;8.52;;
35324;SDS011;35135;47.510;19.036;2023-06-22T10:19:22;10.88;;;8.57;;
35324;SDS011;35135;47.510;19.036;2023-06-22T10:21:48;9.50;;;8.50;;
35324;SDS011;35135;47.510;19.036;2023-06-22T10:24:14;8.80;;;7.90;;
35324;SDS011;35135;47.510;19.036;2023-06-22T10:26:39;8.88;;;7.78;;
35324;SDS011;35135;47.510;19.036;2023-06-22T10:29:05;9.15;;;7.75;;
35324;SDS011;35135;47.510;19.036;2023-06-22T10:31:31;10.05;;;8.05;;
35324;SDS011;35135;47.510;19.036;2023-06-22T10:33:56;8.93;;;7.95;;
35324;SDS011;35135;47.510;19.036;2023-06-22T10:36:22;9.02;;;8.00;;
35324;SDS011;35135;47.510;19.036;2023-06-22T10:38:48;9.02;;;7.90;;
35324;SDS011;35135;47.510;19.036;2023-06-22T10:41:14;8.63;;;7.78;;
35324;SDS011;35135;47.510;19.036;2023-06-22T10:43:40;9.43;;;8.52;;
35324;SDS011;35135;47.510;19.036;2023-06-22T10:46:06;11.55;;;8.07;;
35324;SDS011;35135;47.510;19.036;2023-06-22T10:48:32;9.70;;;8.02;;
35324;SDS011;35135;47.510;19.036;2023-06-22T10:50:58;8.63;;;7.50;;
35324;SDS011;35135;47.510;19.036;2023-06-22T10:53:24;13.32;;;9.10;;
35324;SDS011;35135;47.510;19.036;2023-06-22T10:55:50;9.50;;;8.63;;
35324;SDS011;35135;47.510;19.036;2023-06-22T10:58:17;8.95;;;8.05;;
35324;SDS011;35135;47.510;19.036;2023-06-22T11:00:43;11.60;;;8.15;;
35324;SDS011;35135;47.510;19.036;2023-06-22T11:03:09;8.40;;;7.55;;
35324;SDS011;35135;47.510;19.036;2023-06-22T11:05:35;9.75;;;8.77;;
35324;SDS011;35135;47.510;19.036;2023-06-22T11:08:01;9.65;;;8.75;;
35324;SDS011;35135;47.510;19.036;2023-06-22T11:10:26;9.90;;;8.20;;
35324;SDS011;35135;47.510;19.036;2023-06-22T11:12:52;9.45;;;7.80;;
35324;SDS011;35135;47.510;19.036;2023-06-22T11:15:18;10.02;;;8.25;;
35324;SDS011;35135;47.510;19.036;2023-06-22T11:17:44;8.85;;;7.93;;
35324;SDS011;35135;47.510;19.036;2023-06-22T11:20:10;9.05;;;7.88;;
35324;SDS011;35135;47.510;19.036;2023-06-22T11:22:45;8.60;;;7.70;;
35324;SDS011;35135;47.510;19.036;2023-06-22T11:25:11;8.75;;;7.93;;
35324;SDS011;35135;47.510;19.036;2023-06-22T11:27:37;9.40;;;8.27;;
35324;SDS011;35135;47.510;19.036;2023-06-22T11:30:03;9.85;;;8.95;;
35324;SDS011;35135;47.510;19.036;2023-06-22T11:32:29;10.75;;;8.52;;
35324;SDS011;35135;47.510;19.036;2023-06-22T11:34:54;11.65;;;9.30;;
35324;SDS011;35135;47.510;19.036;2023-06-22T11:37:20;10.85;;;8.32;;
35324;SDS011;35135;47.510;19.036;2023-06-22T11:39:46;8.85;;;7.95;;
35324;SDS011;35135;47.510;19.036;2023-06-22T11:42:11;9.60;;;8.00;;
35324;SDS011;35135;47.510;19.036;2023-06-22T11:44:37;9.25;;;8.30;;
35324;SDS011;35135;47.510;19.036;2023-06-22T11:47:03;9.25;;;8.35;;
35324;SDS011;35135;47.510;19.036;2023-06-22T11:49:32;11.43;;;8.32;;
35324;SDS011;35135;47.510;19.036;2023-06-22T11:51:57;9.13;;;8.23;;
35324;SDS011;35135;47.510;19.036;2023-06-22T11:54:23;8.82;;;7.80;;
35324;SDS011;35135;47.510;19.036;2023-06-22T11:56:49;9.27;;;8.43;;
35324;SDS011;35135;47.510;19.036;2023-06-22T11:59:15;9.05;;;8.25;;
35324;SDS011;35135;47.510;19.036;2023-06-22T12:01:40;9.05;;;8.25;;
35324;SDS011;35135;47.510;19.036;2023-06-22T12:04:06;9.45;;;8.38;;
35324;SDS011;35135;47.510;19.036;2023-06-22T12:06:32;9.80;;;8.15;;
35324;SDS011;35135;47.510;19.036;2023-06-22T12:08:58;10.50;;;8.15;;
35324;SDS011;35135;47.510;19.036;2023-06-22T12:11:24;10.32;;;8.38;;
35324;SDS011;35135;47.510;19.036;2023-06-22T12:13:50;11.27;;;8.30;;
35324;SDS011;35135;47.510;19.036;2023-06-22T12:16:15;8.50;;;7.70;;
35324;SDS011;35135;47.510;19.036;2023-06-22T12:18:41;12.70;;;8.23;;
35324;SDS011;35135;47.510;19.036;2023-06-22T12:21:07;9.05;;;8.07;;
35324;SDS011;35135;47.510;19.036;2023-06-22T12:23:32;12.60;;;8.65;;
35324;SDS011;35135;47.510;19.036;2023-06-22T12:25:58;9.57;;;8.60;;
35324;SDS011;35135;47.510;19.036;2023-06-22T12:28:25;9.05;;;8.27;;
35324;SDS011;35135;47.510;19.036;2023-06-22T12:30:50;10.45;;;8.45;;
35324;SDS011;35135;47.510;19.036;2023-06-22T12:33:16;9.10;;;8.15;;
35324;SDS011;35135;47.510;19.036;2023-06-22T12:35:42;8.68;;;7.93;;
35324;SDS011;35135;47.510;19.036;2023-06-22T12:38:10;8.70;;;7.82;;
35324;SDS011;35135;47.510;19.036;2023-06-22T12:40:36;13.68;;;9.00;;
35324;SDS011;35135;47.510;19.036;2023-06-22T12:43:01;11.15;;;8.00;;
35324;SDS011;35135;47.510;19.036;2023-06-22T12:45:27;9.40;;;7.90;;
35324;SDS011;35135;47.510;19.036;2023-06-22T12:47:56;9.43;;;8.18;;
35324;SDS011;35135;47.510;19.036;2023-06-22T12:50:22;12.43;;;8.52;;
35324;SDS011;35135;47.510;19.036;2023-06-22T12:52:48;10.02;;;7.95;;
35324;SDS011;35135;47.510;19.036;2023-06-22T12:55:13;9.45;;;8.02;;
35324;SDS011;35135;47.510;19.036;2023-06-22T12:57:39;11.07;;;8.25;;
35324;SDS011;35135;47.510;19.036;2023-06-22T13:00:05;11.07;;;8.07;;
35324;SDS011;35135;47.510;19.036;2023-06-22T13:02:33;12.23;;;8.65;;
35324;SDS011;35135;47.510;19.036;2023-06-22T13:04:58;10.40;;;8.25;;
35324;SDS011;35135;47.510;19.036;2023-06-22T13:07:24;9.07;;;8.18;;
35324;SDS011;35135;47.510;19.036;2023-06-22T13:09:50;9.77;;;8.07;;
35324;SDS011;35135;47.510;19.036;2023-06-22T13:12:16;10.65;;;8.48;;
35324;SDS011;35135;47.510;19.036;2023-06-22T13:14:42;9.20;;;8.30;;
35324;SDS011;35135;47.510;19.036;2023-06-22T13:17:08;14.15;;;8.32;;
35324;SDS011;35135;47.510;19.036;2023-06-22T13:19:34;14.55;;;8.10;;
35324;SDS011;35135;47.510;19.036;2023-06-22T13:22:00;10.00;;;8.20;;
35324;SDS011;35135;47.510;19.036;2023-06-22T13:24:25;8.77;;;7.93;;
35324;SDS011;35135;47.510;19.036;2023-06-22T13:26:51;11.80;;;8.38;;
35324;SDS011;35135;47.510;19.036;2023-06-22T13:29:17;9.57;;;8.57;;
35324;SDS011;35135;47.510;19.036;2023-06-22T13:31:42;9.77;;;8.35;;
35324;SDS011;35135;47.510;19.036;2023-06-22T13:34:08;10.20;;;7.93;;
35324;SDS011;35135;47.510;19.036;2023-06-22T13:36:33;10.13;;;8.07;;
35324;SDS011;35135;47.510;19.036;2023-06-22T13:38:59;9.77;;;8.38;;
35324;SDS011;35135;47.510;19.036;2023-06-22T13:41:25;8.50;;;7.60;;
35324;SDS011;35135;47.510;19.036;2023-06-22T13:43:50;12.23;;;7.88;;
35324;SDS011;35135;47.510;19.036;2023-06-22T13:46:16;9.70;;;8.70;;
35324;SDS011;35135;47.510;19.036;2023-06-22T13:48:42;9.27;;;7.47;;
35324;SDS011;35135;47.510;19.036;2023-06-22T13:51:08;8.88;;;8.07;;
35324;SDS011;35135;47.510;19.036;2023-06-22T13:53:33;9.05;;;8.13;;
35324;SDS011;35135;47.510;19.036;2023-06-22T13:55:59;8.75;;;7.88;;
35324;SDS011;35135;47.510;19.036;2023-06-22T13:58:25;9.25;;;8.32;;
35324;SDS011;35135;47.510;19.036;2023-06-22T14:00:50;9.13;;;8.23;;
35324;SDS011;35135;47.510;19.036;2023-06-22T14:03:16;9.20;;;8.32;;
35324;SDS011;35135;47.510;19.036;2023-06-22T14:05:42;9.32;;;8.30;;
35324;SDS011;35135;47.510;19.036;2023-06-22T14:08:08;8.95;;;8.05;;
35324;SDS011;35135;47.510;19.036;2023-06-22T14:10:34;9.38;;;8.10;;
35324;SDS011;35135;47.510;19.036;2023-06-22T14:13:00;8.88;;;8.07;;
35324;SDS011;35135;47.510;19.036;2023-06-22T14:15:25;8.65;;;7.85;;
35324;SDS011;35135;47.510;19.036;2023-06-22T14:17:51;9.88;;;8.05;;
35324;SDS011;35135;47.510;19.036;2023-06-22T14:20:17;9.25;;;8.35;;
35324;SDS011;35135;47.510;19.036;2023-06-22T14:22:43;9.13;;;7.97;;
35324;SDS011;35135;47.510;19.036;2023-06-22T14:25:09;8.52;;;7.80;;
35324;SDS011;35135;47.510;19.036;2023-06-22T14:27:34;8.35;;;7.55;;
35324;SDS011;35135;47.510;19.036;2023-06-22T14:30:00;9.00;;;8.15;;